TimeNZDT,TemperatureF,Dew PointF,Humidity,Sea Level PressureIn,VisibilityMPH,Wind Direction,Wind SpeedMPH,Gust SpeedMPH,PrecipitationIn,Events,Conditions,WindDirDegrees,DateUTC
12:00 AM,50.0,44.6,82,30.04,-9999.0,ENE,2.3,-,N/A,,Clear,60,2012-10-29 11:00:00
1:00 AM,50.0,42.8,76,30.04,-9999.0,NE,3.5,-,N/A,,Clear,40,2012-10-29 12:00:00
2:00 AM,50.0,46.4,87,30.04,-9999.0,WSW,1.2,-,N/A,,Clear,240,2012-10-29 13:00:00
3:00 AM,46.4,42.8,87,30.04,-9999.0,North,5.8,-,N/A,,Clear,350,2012-10-29 14:00:00
4:00 AM,46.4,42.8,87,30.04,-9999.0,NE,2.3,-,N/A,,Clear,40,2012-10-29 15:00:00
5:00 AM,46.4,42.8,87,30.01,-9999.0,North,6.9,-,N/A,,Clear,10,2012-10-29 16:00:00
6:00 AM,46.4,42.8,87,30.01,-9999.0,NNE,5.8,-,N/A,,Clear,20,2012-10-29 17:00:00
7:00 AM,50.0,46.4,87,30.01,-9999.0,North,6.9,-,N/A,,Clear,360,2012-10-29 18:00:00
8:00 AM,53.6,48.2,82,30.01,-9999.0,North,10.4,-,N/A,,Clear,360,2012-10-29 19:00:00
9:00 AM,59.0,48.2,67,30.01,-9999.0,NNE,11.5,-,N/A,,Clear,20,2012-10-29 20:00:00
10:00 AM,62.6,46.4,55,30.01,-9999.0,NNE,12.7,-,N/A,,Clear,20,2012-10-29 21:00:00
11:00 AM,64.4,42.8,45,30.01,-9999.0,North,12.7,-,N/A,,Clear,350,2012-10-29 22:00:00
12:00 PM,68.0,44.6,43,29.98,6.2,North,12.7,-,N/A,,Unknown,350,2012-10-29 23:00:00
1:00 PM,68.0,44.6,43,29.98,-9999.0,North,12.7,-,N/A,,Clear,350,2012-10-30 00:00:00
2:00 PM,68.0,42.8,40,29.98,-9999.0,NNW,13.8,-,N/A,,Clear,340,2012-10-30 01:00:00
3:00 PM,69.8,42.8,38,29.95,-9999.0,NNW,15.0,-,N/A,,Clear,340,2012-10-30 02:00:00
4:00 PM,69.8,42.8,38,29.92,-9999.0,NNW,13.8,-,N/A,,Clear,340,2012-10-30 03:00:00
5:00 PM,68.0,41.0,37,29.92,-9999.0,NNW,15.0,-,N/A,,Clear,340,2012-10-30 04:00:00
6:00 PM,66.2,42.8,43,29.92,-9999.0,NNW,13.8,-,N/A,,Clear,330,2012-10-30 05:00:00
7:00 PM,64.4,42.8,45,29.92,-9999.0,NNW,11.5,-,N/A,,Clear,340,2012-10-30 06:00:00
8:00 PM,60.8,44.6,55,29.92,-9999.0,North,10.4,-,N/A,,Clear,360,2012-10-30 07:00:00
9:00 PM,59.0,46.4,63,29.89,-9999.0,North,18.4,-,N/A,,Clear,350,2012-10-30 08:00:00
10:00 PM,57.2,46.4,67,29.92,-9999.0,NNE,13.8,-,N/A,,Clear,20,2012-10-30 09:00:00
11:00 PM,57.2,48.2,72,29.92,-9999.0,North,17.3,-,N/A,,Clear,10,2012-10-30 10:00:00